ΕΜΥ, Εθνική Μετεωρολογική Υπηρεσία - Δελτία Καιρού, Προγνώσεις

ΑΕΡΟΝΑΥΤΙΛΙΑ

GREEK AIRPORTS CODES

TAF LGSR 091700Z 0918/1018 34018KT 9999 FEW020=

EUROPEAN AIRPORTS CODES

LFPO 091730Z AUTO 04010KT 010V070 CAVOK 30/10 Q1022 NOSIG=